sensor_id;sensor_type;location;lat;lon;timestamp;P1;durP1;ratioP1;P2;durP2;ratioP2
3311;SDS011;1668;49.648;8.570;2024-02-28T00:01:37;18.03;;;11.40;;
3311;SDS011;1668;49.648;8.570;2024-02-28T00:04:04;18.20;;;11.60;;
3311;SDS011;1668;49.648;8.570;2024-02-28T00:06:30;17.90;;;11.93;;
3311;SDS011;1668;49.648;8.570;2024-02-28T00:08:57;18.73;;;12.43;;
3311;SDS011;1668;49.648;8.570;2024-02-28T00:11:24;15.80;;;11.53;;
3311;SDS011;1668;49.648;8.570;2024-02-28T00:13:51;16.67;;;12.27;;
3311;SDS011;1668;49.648;8.570;2024-02-28T00:16:19;16.70;;;10.50;;
3311;SDS011;1668;49.648;8.570;2024-02-28T00:18:46;16.97;;;10.70;;
3311;SDS011;1668;49.648;8.570;2024-02-28T00:21:12;17.23;;;11.57;;
3311;SDS011;1668;49.648;8.570;2024-02-28T00:23:39;15.07;;;10.50;;
3311;SDS011;1668;49.648;8.570;2024-02-28T00:26:06;17.23;;;11.87;;
3311;SDS011;1668;49.648;8.570;2024-02-28T00:28:33;16.73;;;11.20;;
3311;SDS011;1668;49.648;8.570;2024-02-28T00:31:00;18.17;;;11.87;;
3311;SDS011;1668;49.648;8.570;2024-02-28T00:33:28;19.37;;;12.17;;
3311;SDS011;1668;49.648;8.570;2024-02-28T00:35:55;17.57;;;11.73;;
3311;SDS011;1668;49.648;8.570;2024-02-28T00:38:22;18.13;;;11.47;;
3311;SDS011;1668;49.648;8.570;2024-02-28T00:40:49;19.90;;;12.60;;
3311;SDS011;1668;49.648;8.570;2024-02-28T00:43:16;17.97;;;12.40;;
3311;SDS011;1668;49.648;8.570;2024-02-28T00:45:42;15.20;;;10.87;;
3311;SDS011;1668;49.648;8.570;2024-02-28T00:48:09;19.10;;;12.53;;
3311;SDS011;1668;49.648;8.570;2024-02-28T00:50:37;18.03;;;11.97;;
3311;SDS011;1668;49.648;8.570;2024-02-28T00:53:04;20.10;;;13.60;;
3311;SDS011;1668;49.648;8.570;2024-02-28T00:55:31;20.17;;;13.33;;
3311;SDS011;1668;49.648;8.570;2024-02-28T00:57:58;17.13;;;12.43;;
3311;SDS011;1668;49.648;8.570;2024-02-28T01:00:24;18.50;;;11.77;;
3311;SDS011;1668;49.648;8.570;2024-02-28T01:02:51;20.03;;;13.20;;
3311;SDS011;1668;49.648;8.570;2024-02-28T01:05:18;20.10;;;13.30;;
3311;SDS011;1668;49.648;8.570;2024-02-28T01:07:46;22.87;;;14.60;;
3311;SDS011;1668;49.648;8.570;2024-02-28T01:10:13;22.10;;;13.90;;
3311;SDS011;1668;49.648;8.570;2024-02-28T01:12:40;17.30;;;12.23;;
3311;SDS011;1668;49.648;8.570;2024-02-28T01:15:07;19.73;;;12.70;;
3311;SDS011;1668;49.648;8.570;2024-02-28T01:17:34;18.83;;;13.03;;
3311;SDS011;1668;49.648;8.570;2024-02-28T01:20:01;18.93;;;12.50;;
3311;SDS011;1668;49.648;8.570;2024-02-28T01:22:28;21.10;;;13.10;;
3311;SDS011;1668;49.648;8.570;2024-02-28T01:24:57;19.20;;;12.73;;
3311;SDS011;1668;49.648;8.570;2024-02-28T01:27:23;19.27;;;13.20;;
3311;SDS011;1668;49.648;8.570;2024-02-28T01:29:50;22.03;;;13.37;;
3311;SDS011;1668;49.648;8.570;2024-02-28T01:32:18;23.37;;;13.87;;
3311;SDS011;1668;49.648;8.570;2024-02-28T01:34:45;22.90;;;13.43;;
3311;SDS011;1668;49.648;8.570;2024-02-28T01:37:12;21.63;;;14.30;;
3311;SDS011;1668;49.648;8.570;2024-02-28T01:39:39;21.07;;;12.90;;
3311;SDS011;1668;49.648;8.570;2024-02-28T01:42:07;29.57;;;16.17;;
3311;SDS011;1668;49.648;8.570;2024-02-28T01:44:34;21.00;;;12.63;;
3311;SDS011;1668;49.648;8.570;2024-02-28T01:47:07;20.83;;;13.33;;
3311;SDS011;1668;49.648;8.570;2024-02-28T01:49:34;23.67;;;13.10;;
3311;SDS011;1668;49.648;8.570;2024-02-28T01:52:01;18.83;;;13.17;;
3311;SDS011;1668;49.648;8.570;2024-02-28T01:54:28;18.10;;;12.70;;
3311;SDS011;1668;49.648;8.570;2024-02-28T01:56:56;18.80;;;12.70;;
3311;SDS011;1668;49.648;8.570;2024-02-28T01:59:24;20.00;;;13.27;;
3311;SDS011;1668;49.648;8.570;2024-02-28T02:01:53;22.30;;;13.47;;
3311;SDS011;1668;49.648;8.570;2024-02-28T02:04:21;19.93;;;13.13;;
3311;SDS011;1668;49.648;8.570;2024-02-28T02:06:47;18.77;;;12.87;;
3311;SDS011;1668;49.648;8.570;2024-02-28T02:09:15;20.27;;;13.80;;
3311;SDS011;1668;49.648;8.570;2024-02-28T02:11:43;20.33;;;13.60;;
3311;SDS011;1668;49.648;8.570;2024-02-28T02:14:10;22.43;;;14.40;;
3311;SDS011;1668;49.648;8.570;2024-02-28T02:16:38;19.20;;;12.97;;
3311;SDS011;1668;49.648;8.570;2024-02-28T02:19:05;22.53;;;13.63;;
3311;SDS011;1668;49.648;8.570;2024-02-28T02:21:34;25.47;;;15.70;;
3311;SDS011;1668;49.648;8.570;2024-02-28T02:24:08;20.47;;;14.33;;
3311;SDS011;1668;49.648;8.570;2024-02-28T02:26:35;21.63;;;14.53;;
3311;SDS011;1668;49.648;8.570;2024-02-28T02:29:02;24.50;;;14.10;;
3311;SDS011;1668;49.648;8.570;2024-02-28T02:31:29;19.17;;;13.37;;
3311;SDS011;1668;49.648;8.570;2024-02-28T02:33:56;19.10;;;12.67;;
3311;SDS011;1668;49.648;8.570;2024-02-28T02:36:23;22.97;;;14.87;;
3311;SDS011;1668;49.648;8.570;2024-02-28T02:38:49;21.50;;;14.97;;
3311;SDS011;1668;49.648;8.570;2024-02-28T02:41:18;22.90;;;14.23;;
3311;SDS011;1668;49.648;8.570;2024-02-28T02:43:44;22.53;;;14.73;;
3311;SDS011;1668;49.648;8.570;2024-02-28T02:46:11;21.53;;;13.70;;
3311;SDS011;1668;49.648;8.570;2024-02-28T02:48:38;23.40;;;14.73;;
3311;SDS011;1668;49.648;8.570;2024-02-28T02:51:05;24.50;;;14.80;;
3311;SDS011;1668;49.648;8.570;2024-02-28T02:53:32;22.07;;;14.27;;
3311;SDS011;1668;49.648;8.570;2024-02-28T02:55:58;23.00;;;14.47;;
3311;SDS011;1668;49.648;8.570;2024-02-28T02:58:27;22.23;;;15.20;;
3311;SDS011;1668;49.648;8.570;2024-02-28T03:00:53;26.73;;;16.40;;
3311;SDS011;1668;49.648;8.570;2024-02-28T03:03:20;27.40;;;16.73;;
3311;SDS011;1668;49.648;8.570;2024-02-28T03:05:47;25.50;;;15.20;;
3311;SDS011;1668;49.648;8.570;2024-02-28T03:08:14;21.90;;;14.30;;
3311;SDS011;1668;49.648;8.570;2024-02-28T03:10:41;27.00;;;16.00;;
3311;SDS011;1668;49.648;8.570;2024-02-28T03:13:08;25.30;;;14.83;;
3311;SDS011;1668;49.648;8.570;2024-02-28T03:15:36;26.03;;;15.17;;
3311;SDS011;1668;49.648;8.570;2024-02-28T03:18:03;24.73;;;15.97;;
3311;SDS011;1668;49.648;8.570;2024-02-28T03:20:30;23.70;;;15.17;;
3311;SDS011;1668;49.648;8.570;2024-02-28T03:22:57;24.93;;;14.87;;
3311;SDS011;1668;49.648;8.570;2024-02-28T03:25:25;23.30;;;15.70;;
3311;SDS011;1668;49.648;8.570;2024-02-28T03:27:53;30.57;;;15.00;;
3311;SDS011;1668;49.648;8.570;2024-02-28T03:30:20;28.30;;;15.10;;
3311;SDS011;1668;49.648;8.570;2024-02-28T03:32:48;26.13;;;15.20;;
3311;SDS011;1668;49.648;8.570;2024-02-28T03:35:15;24.80;;;15.30;;
3311;SDS011;1668;49.648;8.570;2024-02-28T03:37:41;25.93;;;15.60;;
3311;SDS011;1668;49.648;8.570;2024-02-28T03:40:08;27.20;;;15.67;;
3311;SDS011;1668;49.648;8.570;2024-02-28T03:42:35;27.40;;;15.50;;
3311;SDS011;1668;49.648;8.570;2024-02-28T03:45:03;28.33;;;15.30;;
3311;SDS011;1668;49.648;8.570;2024-02-28T03:47:30;24.00;;;15.40;;
3311;SDS011;1668;49.648;8.570;2024-02-28T03:49:58;25.07;;;16.00;;
3311;SDS011;1668;49.648;8.570;2024-02-28T03:52:27;23.60;;;15.40;;
3311;SDS011;1668;49.648;8.570;2024-02-28T03:54:55;19.83;;;13.50;;
3311;SDS011;1668;49.648;8.570;2024-02-28T03:57:22;24.67;;;15.90;;
3311;SDS011;1668;49.648;8.570;2024-02-28T03:59:48;24.63;;;15.10;;
3311;SDS011;1668;49.648;8.570;2024-02-28T04:02:14;25.27;;;16.20;;
3311;SDS011;1668;49.648;8.570;2024-02-28T04:04:41;24.93;;;15.67;;
3311;SDS011;1668;49.648;8.570;2024-02-28T04:07:10;22.80;;;15.40;;
3311;SDS011;1668;49.648;8.570;2024-02-28T04:09:37;26.07;;;16.63;;
3311;SDS011;1668;49.648;8.570;2024-02-28T04:12:04;26.93;;;15.70;;
3311;SDS011;1668;49.648;8.570;2024-02-28T04:14:31;25.80;;;15.60;;
3311;SDS011;1668;49.648;8.570;2024-02-28T04:16:58;26.10;;;16.27;;
3311;SDS011;1668;49.648;8.570;2024-02-28T04:19:24;23.70;;;15.67;;
3311;SDS011;1668;49.648;8.570;2024-02-28T04:21:51;25.97;;;16.07;;
3311;SDS011;1668;49.648;8.570;2024-02-28T04:24:19;28.30;;;16.07;;
3311;SDS011;1668;49.648;8.570;2024-02-28T04:26:46;25.33;;;15.30;;
3311;SDS011;1668;49.648;8.570;2024-02-28T04:29:13;24.90;;;15.47;;
3311;SDS011;1668;49.648;8.570;2024-02-28T04:31:40;28.20;;;17.33;;
3311;SDS011;1668;49.648;8.570;2024-02-28T04:34:07;24.60;;;15.53;;
3311;SDS011;1668;49.648;8.570;2024-02-28T04:36:34;25.90;;;16.40;;
3311;SDS011;1668;49.648;8.570;2024-02-28T04:39:01;29.13;;;17.80;;
3311;SDS011;1668;49.648;8.570;2024-02-28T04:41:32;25.90;;;15.60;;
3311;SDS011;1668;49.648;8.570;2024-02-28T04:43:59;29.40;;;16.77;;
3311;SDS011;1668;49.648;8.570;2024-02-28T04:46:26;23.43;;;16.03;;
3311;SDS011;1668;49.648;8.570;2024-02-28T04:48:53;26.27;;;16.20;;
3311;SDS011;1668;49.648;8.570;2024-02-28T04:51:20;30.90;;;16.73;;
3311;SDS011;1668;49.648;8.570;2024-02-28T04:53:46;26.00;;;15.47;;
3311;SDS011;1668;49.648;8.570;2024-02-28T04:56:13;26.50;;;16.90;;
3311;SDS011;1668;49.648;8.570;2024-02-28T04:58:41;25.50;;;16.47;;
3311;SDS011;1668;49.648;8.570;2024-02-28T05:01:08;24.10;;;14.80;;
3311;SDS011;1668;49.648;8.570;2024-02-28T05:03:35;30.33;;;16.97;;
3311;SDS011;1668;49.648;8.570;2024-02-28T05:06:02;24.70;;;16.53;;
3311;SDS011;1668;49.648;8.570;2024-02-28T05:08:29;28.60;;;17.40;;
3311;SDS011;1668;49.648;8.570;2024-02-28T05:10:56;31.80;;;18.43;;
3311;SDS011;1668;49.648;8.570;2024-02-28T05:13:23;27.37;;;16.90;;
3311;SDS011;1668;49.648;8.570;2024-02-28T05:15:51;29.60;;;18.13;;
3311;SDS011;1668;49.648;8.570;2024-02-28T05:18:18;36.73;;;20.50;;
3311;SDS011;1668;49.648;8.570;2024-02-28T05:20:45;35.80;;;19.33;;
3311;SDS011;1668;49.648;8.570;2024-02-28T05:23:12;32.20;;;19.67;;
3311;SDS011;1668;49.648;8.570;2024-02-28T05:25:40;33.33;;;18.43;;
3311;SDS011;1668;49.648;8.570;2024-02-28T05:28:07;26.33;;;16.07;;
3311;SDS011;1668;49.648;8.570;2024-02-28T05:30:34;27.77;;;17.33;;
3311;SDS011;1668;49.648;8.570;2024-02-28T05:33:02;27.50;;;16.13;;
3311;SDS011;1668;49.648;8.570;2024-02-28T05:35:29;28.33;;;16.83;;
3311;SDS011;1668;49.648;8.570;2024-02-28T05:37:56;25.47;;;16.37;;
3311;SDS011;1668;49.648;8.570;2024-02-28T05:40:23;32.63;;;17.87;;
3311;SDS011;1668;49.648;8.570;2024-02-28T05:42:50;26.67;;;16.10;;
3311;SDS011;1668;49.648;8.570;2024-02-28T05:45:17;27.07;;;15.27;;
3311;SDS011;1668;49.648;8.570;2024-02-28T05:47:44;26.13;;;16.93;;
3311;SDS011;1668;49.648;8.570;2024-02-28T05:50:12;25.97;;;15.50;;
3311;SDS011;1668;49.648;8.570;2024-02-28T05:52:41;30.87;;;17.37;;
3311;SDS011;1668;49.648;8.570;2024-02-28T05:55:08;25.73;;;15.73;;
3311;SDS011;1668;49.648;8.570;2024-02-28T05:57:35;30.80;;;17.37;;
3311;SDS011;1668;49.648;8.570;2024-02-28T06:00:01;30.20;;;16.97;;
3311;SDS011;1668;49.648;8.570;2024-02-28T06:02:35;28.53;;;17.23;;
3311;SDS011;1668;49.648;8.570;2024-02-28T06:05:02;25.93;;;16.50;;
3311;SDS011;1668;49.648;8.570;2024-02-28T06:07:31;26.50;;;17.17;;
3311;SDS011;1668;49.648;8.570;2024-02-28T06:09:58;30.53;;;17.50;;
3311;SDS011;1668;49.648;8.570;2024-02-28T06:12:24;36.90;;;23.00;;
3311;SDS011;1668;49.648;8.570;2024-02-28T06:14:51;29.50;;;18.47;;
3311;SDS011;1668;49.648;8.570;2024-02-28T06:17:18;26.53;;;16.40;;
3311;SDS011;1668;49.648;8.570;2024-02-28T06:19:46;28.97;;;16.73;;
3311;SDS011;1668;49.648;8.570;2024-02-28T06:22:13;25.40;;;16.17;;
3311;SDS011;1668;49.648;8.570;2024-02-28T06:24:41;29.33;;;17.50;;
3311;SDS011;1668;49.648;8.570;2024-02-28T06:27:08;30.10;;;17.93;;
3311;SDS011;1668;49.648;8.570;2024-02-28T06:29:37;31.03;;;17.50;;
3311;SDS011;1668;49.648;8.570;2024-02-28T06:32:04;30.63;;;18.27;;
3311;SDS011;1668;49.648;8.570;2024-02-28T06:34:31;29.50;;;17.50;;
3311;SDS011;1668;49.648;8.570;2024-02-28T06:36:58;29.10;;;18.30;;
3311;SDS011;1668;49.648;8.570;2024-02-28T06:39:24;29.30;;;18.53;;
3311;SDS011;1668;49.648;8.570;2024-02-28T06:41:53;28.00;;;17.10;;
3311;SDS011;1668;49.648;8.570;2024-02-28T06:44:19;29.73;;;17.93;;
3311;SDS011;1668;49.648;8.570;2024-02-28T06:46:46;29.90;;;17.43;;
3311;SDS011;1668;49.648;8.570;2024-02-28T06:49:13;31.77;;;18.30;;
3311;SDS011;1668;49.648;8.570;2024-02-28T06:51:40;28.80;;;18.03;;
3311;SDS011;1668;49.648;8.570;2024-02-28T06:54:08;29.17;;;17.20;;
3311;SDS011;1668;49.648;8.570;2024-02-28T06:56:35;29.20;;;17.10;;
3311;SDS011;1668;49.648;8.570;2024-02-28T06:59:03;31.67;;;19.03;;
3311;SDS011;1668;49.648;8.570;2024-02-28T07:01:32;28.13;;;17.20;;
3311;SDS011;1668;49.648;8.570;2024-02-28T07:03:59;29.90;;;17.47;;
3311;SDS011;1668;49.648;8.570;2024-02-28T07:06:25;34.93;;;18.13;;
3311;SDS011;1668;49.648;8.570;2024-02-28T07:08:52;27.70;;;17.83;;
3311;SDS011;1668;49.648;8.570;2024-02-28T07:11:19;28.90;;;17.63;;
3311;SDS011;1668;49.648;8.570;2024-02-28T07:13:46;27.63;;;16.30;;
3311;SDS011;1668;49.648;8.570;2024-02-28T07:16:15;26.13;;;15.93;;
3311;SDS011;1668;49.648;8.570;2024-02-28T07:18:42;30.17;;;18.60;;
3311;SDS011;1668;49.648;8.570;2024-02-28T07:21:08;30.03;;;18.80;;
3311;SDS011;1668;49.648;8.570;2024-02-28T07:23:38;31.13;;;18.20;;
3311;SDS011;1668;49.648;8.570;2024-02-28T07:26:05;31.17;;;18.50;;
3311;SDS011;1668;49.648;8.570;2024-02-28T07:28:32;27.83;;;16.73;;
3311;SDS011;1668;49.648;8.570;2024-02-28T07:30:59;29.83;;;18.97;;
3311;SDS011;1668;49.648;8.570;2024-02-28T07:33:27;34.17;;;19.00;;
3311;SDS011;1668;49.648;8.570;2024-02-28T07:35:54;32.33;;;18.63;;
3311;SDS011;1668;49.648;8.570;2024-02-28T07:38:26;32.70;;;18.73;;
3311;SDS011;1668;49.648;8.570;2024-02-28T07:40:53;29.37;;;17.30;;
3311;SDS011;1668;49.648;8.570;2024-02-28T07:43:20;28.90;;;18.60;;
3311;SDS011;1668;49.648;8.570;2024-02-28T07:45:47;30.33;;;19.40;;
3311;SDS011;1668;49.648;8.570;2024-02-28T07:48:14;30.33;;;18.40;;
3311;SDS011;1668;49.648;8.570;2024-02-28T07:50:44;31.40;;;19.10;;
3311;SDS011;1668;49.648;8.570;2024-02-28T07:53:10;34.43;;;20.13;;
3311;SDS011;1668;49.648;8.570;2024-02-28T07:55:38;31.23;;;19.50;;
3311;SDS011;1668;49.648;8.570;2024-02-28T07:58:04;30.37;;;18.43;;
3311;SDS011;1668;49.648;8.570;2024-02-28T08:00:31;28.30;;;17.33;;
3311;SDS011;1668;49.648;8.570;2024-02-28T08:02:59;33.17;;;19.27;;
3311;SDS011;1668;49.648;8.570;2024-02-28T08:05:26;34.70;;;19.40;;
3311;SDS011;1668;49.648;8.570;2024-02-28T08:07:54;29.60;;;18.43;;
3311;SDS011;1668;49.648;8.570;2024-02-28T08:10:21;31.30;;;19.30;;
3311;SDS011;1668;49.648;8.570;2024-02-28T08:12:47;33.20;;;19.37;;
3311;SDS011;1668;49.648;8.570;2024-02-28T08:15:14;31.23;;;19.50;;
3311;SDS011;1668;49.648;8.570;2024-02-28T08:17:41;32.57;;;18.87;;
3311;SDS011;1668;49.648;8.570;2024-02-28T08:20:08;36.30;;;18.80;;
3311;SDS011;1668;49.648;8.570;2024-02-28T08:22:35;30.13;;;18.50;;
3311;SDS011;1668;49.648;8.570;2024-02-28T08:25:04;32.83;;;19.07;;
3311;SDS011;1668;49.648;8.570;2024-02-28T08:27:31;31.27;;;18.40;;
3311;SDS011;1668;49.648;8.570;2024-02-28T08:29:59;33.77;;;19.13;;
3311;SDS011;1668;49.648;8.570;2024-02-28T08:32:27;34.23;;;20.60;;
3311;SDS011;1668;49.648;8.570;2024-02-28T08:34:53;34.40;;;19.30;;
3311;SDS011;1668;49.648;8.570;2024-02-28T08:37:22;33.40;;;20.30;;
3311;SDS011;1668;49.648;8.570;2024-02-28T08:39:49;34.37;;;19.83;;
3311;SDS011;1668;49.648;8.570;2024-02-28T08:42:17;34.10;;;20.40;;
3311;SDS011;1668;49.648;8.570;2024-02-28T08:44:45;34.53;;;20.83;;
3311;SDS011;1668;49.648;8.570;2024-02-28T08:47:13;33.13;;;20.43;;
3311;SDS011;1668;49.648;8.570;2024-02-28T08:49:40;32.07;;;20.53;;
3311;SDS011;1668;49.648;8.570;2024-02-28T08:52:06;33.27;;;20.20;;
3311;SDS011;1668;49.648;8.570;2024-02-28T08:54:33;32.13;;;19.00;;
3311;SDS011;1668;49.648;8.570;2024-02-28T08:57:00;33.20;;;19.33;;
3311;SDS011;1668;49.648;8.570;2024-02-28T08:59:30;35.50;;;20.00;;
3311;SDS011;1668;49.648;8.570;2024-02-28T09:01:57;36.80;;;20.50;;
3311;SDS011;1668;49.648;8.570;2024-02-28T09:04:24;32.50;;;19.80;;
3311;SDS011;1668;49.648;8.570;2024-02-28T09:06:50;35.50;;;21.17;;
3311;SDS011;1668;49.648;8.570;2024-02-28T09:09:18;35.70;;;21.27;;
3311;SDS011;1668;49.648;8.570;2024-02-28T09:11:44;31.00;;;19.27;;
3311;SDS011;1668;49.648;8.570;2024-02-28T09:14:11;31.33;;;20.53;;
3311;SDS011;1668;49.648;8.570;2024-02-28T09:16:39;32.50;;;18.70;;
3311;SDS011;1668;49.648;8.570;2024-02-28T09:19:06;31.83;;;20.30;;
3311;SDS011;1668;49.648;8.570;2024-02-28T09:21:32;32.80;;;20.97;;
3311;SDS011;1668;49.648;8.570;2024-02-28T09:24:00;35.77;;;20.27;;
3311;SDS011;1668;49.648;8.570;2024-02-28T09:26:27;32.57;;;20.10;;
3311;SDS011;1668;49.648;8.570;2024-02-28T09:28:54;33.30;;;20.57;;
3311;SDS011;1668;49.648;8.570;2024-02-28T09:31:21;31.03;;;19.80;;
3311;SDS011;1668;49.648;8.570;2024-02-28T09:33:49;42.83;;;25.77;;
3311;SDS011;1668;49.648;8.570;2024-02-28T09:36:16;33.40;;;20.80;;
3311;SDS011;1668;49.648;8.570;2024-02-28T09:38:42;36.90;;;19.93;;
3311;SDS011;1668;49.648;8.570;2024-02-28T09:41:12;34.07;;;20.57;;
3311;SDS011;1668;49.648;8.570;2024-02-28T09:43:41;32.57;;;20.27;;
3311;SDS011;1668;49.648;8.570;2024-02-28T09:46:08;31.77;;;19.90;;
3311;SDS011;1668;49.648;8.570;2024-02-28T09:48:38;29.57;;;19.00;;
3311;SDS011;1668;49.648;8.570;2024-02-28T09:51:07;31.40;;;19.27;;
3311;SDS011;1668;49.648;8.570;2024-02-28T09:53:35;32.77;;;19.47;;
3311;SDS011;1668;49.648;8.570;2024-02-28T09:56:03;32.03;;;18.50;;
3311;SDS011;1668;49.648;8.570;2024-02-28T09:58:32;31.87;;;19.10;;
3311;SDS011;1668;49.648;8.570;2024-02-28T10:01:01;29.50;;;17.97;;
3311;SDS011;1668;49.648;8.570;2024-02-28T10:03:30;33.90;;;19.07;;
3311;SDS011;1668;49.648;8.570;2024-02-28T10:05:57;33.40;;;20.20;;
3311;SDS011;1668;49.648;8.570;2024-02-28T10:08:25;32.87;;;20.60;;
3311;SDS011;1668;49.648;8.570;2024-02-28T10:10:52;31.53;;;20.03;;
3311;SDS011;1668;49.648;8.570;2024-02-28T10:13:21;30.70;;;18.40;;
3311;SDS011;1668;49.648;8.570;2024-02-28T10:15:49;34.60;;;20.50;;
3311;SDS011;1668;49.648;8.570;2024-02-28T10:18:15;32.57;;;19.47;;
3311;SDS011;1668;49.648;8.570;2024-02-28T10:20:42;30.17;;;19.50;;
3311;SDS011;1668;49.648;8.570;2024-02-28T10:23:09;30.80;;;19.87;;
3311;SDS011;1668;49.648;8.570;2024-02-28T10:25:43;33.50;;;19.23;;
3311;SDS011;1668;49.648;8.570;2024-02-28T10:28:10;31.07;;;19.63;;
3311;SDS011;1668;49.648;8.570;2024-02-28T10:30:39;30.60;;;18.80;;
3311;SDS011;1668;49.648;8.570;2024-02-28T10:33:09;28.37;;;18.37;;
3311;SDS011;1668;49.648;8.570;2024-02-28T10:35:37;29.47;;;19.37;;
3311;SDS011;1668;49.648;8.570;2024-02-28T10:38:05;29.77;;;18.63;;
3311;SDS011;1668;49.648;8.570;2024-02-28T10:40:32;33.17;;;19.80;;
3311;SDS011;1668;49.648;8.570;2024-02-28T10:43:00;35.87;;;20.37;;
3311;SDS011;1668;49.648;8.570;2024-02-28T10:45:30;27.97;;;18.57;;
3311;SDS011;1668;49.648;8.570;2024-02-28T10:47:57;31.10;;;18.60;;
3311;SDS011;1668;49.648;8.570;2024-02-28T10:50:24;30.67;;;19.57;;
3311;SDS011;1668;49.648;8.570;2024-02-28T10:52:51;25.80;;;17.10;;
3311;SDS011;1668;49.648;8.570;2024-02-28T10:55:20;24.90;;;16.27;;
3311;SDS011;1668;49.648;8.570;2024-02-28T10:57:50;24.60;;;16.57;;
3311;SDS011;1668;49.648;8.570;2024-02-28T11:00:26;26.77;;;17.67;;
3311;SDS011;1668;49.648;8.570;2024-02-28T11:02:53;28.90;;;18.07;;
3311;SDS011;1668;49.648;8.570;2024-02-28T11:05:20;26.00;;;17.37;;
3311;SDS011;1668;49.648;8.570;2024-02-28T11:07:50;27.80;;;16.70;;
3311;SDS011;1668;49.648;8.570;2024-02-28T11:10:18;25.63;;;16.60;;
3311;SDS011;1668;49.648;8.570;2024-02-28T11:12:54;26.33;;;17.17;;
3311;SDS011;1668;49.648;8.570;2024-02-28T11:15:24;27.57;;;16.67;;
3311;SDS011;1668;49.648;8.570;2024-02-28T11:17:53;23.57;;;16.47;;
3311;SDS011;1668;49.648;8.570;2024-02-28T11:20:20;24.70;;;16.20;;
3311;SDS011;1668;49.648;8.570;2024-02-28T11:22:48;23.10;;;15.50;;
3311;SDS011;1668;49.648;8.570;2024-02-28T11:25:22;25.20;;;15.40;;
3311;SDS011;1668;49.648;8.570;2024-02-28T11:27:49;22.10;;;15.60;;
3311;SDS011;1668;49.648;8.570;2024-02-28T11:30:16;21.80;;;14.90;;
3311;SDS011;1668;49.648;8.570;2024-02-28T11:32:45;21.23;;;14.70;;
3311;SDS011;1668;49.648;8.570;2024-02-28T11:35:12;26.23;;;16.20;;
3311;SDS011;1668;49.648;8.570;2024-02-28T11:37:39;24.40;;;14.20;;
3311;SDS011;1668;49.648;8.570;2024-02-28T11:40:07;21.70;;;14.50;;
3311;SDS011;1668;49.648;8.570;2024-02-28T11:42:35;21.27;;;14.57;;
3311;SDS011;1668;49.648;8.570;2024-02-28T11:45:02;21.57;;;14.27;;
3311;SDS011;1668;49.648;8.570;2024-02-28T11:47:31;21.37;;;14.00;;
3311;SDS011;1668;49.648;8.570;2024-02-28T11:49:59;18.70;;;13.30;;
3311;SDS011;1668;49.648;8.570;2024-02-28T11:52:28;20.53;;;14.43;;
3311;SDS011;1668;49.648;8.570;2024-02-28T11:54:57;19.40;;;13.80;;
3311;SDS011;1668;49.648;8.570;2024-02-28T11:57:24;24.27;;;14.90;;
3311;SDS011;1668;49.648;8.570;2024-02-28T11:59:51;22.93;;;14.70;;
3311;SDS011;1668;49.648;8.570;2024-02-28T12:02:18;20.37;;;14.70;;
3311;SDS011;1668;49.648;8.570;2024-02-28T12:04:50;21.20;;;14.80;;
3311;SDS011;1668;49.648;8.570;2024-02-28T12:07:20;20.80;;;14.77;;
3311;SDS011;1668;49.648;8.570;2024-02-28T12:09:47;21.37;;;14.00;;
3311;SDS011;1668;49.648;8.570;2024-02-28T12:12:14;21.67;;;13.90;;
3311;SDS011;1668;49.648;8.570;2024-02-28T12:14:43;17.17;;;13.00;;
3311;SDS011;1668;49.648;8.570;2024-02-28T12:17:13;23.03;;;13.83;;
3311;SDS011;1668;49.648;8.570;2024-02-28T12:19:40;20.47;;;13.57;;
3311;SDS011;1668;49.648;8.570;2024-02-28T12:22:08;23.70;;;14.40;;
3311;SDS011;1668;49.648;8.570;2024-02-28T12:24:37;20.50;;;12.77;;
3311;SDS011;1668;49.648;8.570;2024-02-28T12:27:04;19.53;;;12.83;;
3311;SDS011;1668;49.648;8.570;2024-02-28T12:29:31;19.30;;;14.57;;
3311;SDS011;1668;49.648;8.570;2024-02-28T12:31:57;20.07;;;13.83;;
3311;SDS011;1668;49.648;8.570;2024-02-28T12:34:24;21.30;;;14.03;;
3311;SDS011;1668;49.648;8.570;2024-02-28T12:36:51;24.90;;;14.70;;
3311;SDS011;1668;49.648;8.570;2024-02-28T12:39:19;23.63;;;15.83;;
3311;SDS011;1668;49.648;8.570;2024-02-28T12:41:47;21.20;;;14.37;;
3311;SDS011;1668;49.648;8.570;2024-02-28T12:44:14;21.63;;;14.60;;
3311;SDS011;1668;49.648;8.570;2024-02-28T12:46:41;19.83;;;15.10;;
3311;SDS011;1668;49.648;8.570;2024-02-28T12:49:08;19.70;;;14.50;;
3311;SDS011;1668;49.648;8.570;2024-02-28T12:51:36;21.23;;;15.37;;
3311;SDS011;1668;49.648;8.570;2024-02-28T12:54:04;21.00;;;14.83;;
3311;SDS011;1668;49.648;8.570;2024-02-28T12:56:32;22.13;;;16.03;;
3311;SDS011;1668;49.648;8.570;2024-02-28T12:59:01;19.00;;;13.70;;
3311;SDS011;1668;49.648;8.570;2024-02-28T13:01:28;23.73;;;14.90;;
3311;SDS011;1668;49.648;8.570;2024-02-28T13:03:55;20.37;;;14.53;;
3311;SDS011;1668;49.648;8.570;2024-02-28T13:06:22;20.43;;;14.23;;
3311;SDS011;1668;49.648;8.570;2024-02-28T13:08:49;20.67;;;13.97;;
3311;SDS011;1668;49.648;8.570;2024-02-28T13:19:04;17.90;;;13.30;;
3311;SDS011;1668;49.648;8.570;2024-02-28T13:21:31;21.70;;;13.00;;
3311;SDS011;1668;49.648;8.570;2024-02-28T13:23:58;15.40;;;12.37;;
3311;SDS011;1668;49.648;8.570;2024-02-28T13:26:26;16.03;;;11.20;;
3311;SDS011;1668;49.648;8.570;2024-02-28T13:28:53;15.63;;;10.97;;
3311;SDS011;1668;49.648;8.570;2024-02-28T13:31:20;15.40;;;10.80;;
3311;SDS011;1668;49.648;8.570;2024-02-28T13:33:49;15.10;;;11.40;;
3311;SDS011;1668;49.648;8.570;2024-02-28T13:36:17;14.27;;;10.70;;
3311;SDS011;1668;49.648;8.570;2024-02-28T13:38:44;13.20;;;10.00;;
3311;SDS011;1668;49.648;8.570;2024-02-28T13:41:11;11.80;;;9.23;;
3311;SDS011;1668;49.648;8.570;2024-02-28T13:44:25;13.37;;;9.07;;
3311;SDS011;1668;49.648;8.570;2024-02-28T13:57:18;13.07;;;9.40;;
3311;SDS011;1668;49.648;8.570;2024-02-28T13:59:44;10.67;;;8.27;;
3311;SDS011;1668;49.648;8.570;2024-02-28T14:02:14;10.87;;;8.50;;
3311;SDS011;1668;49.648;8.570;2024-02-28T14:04:41;11.33;;;7.70;;
3311;SDS011;1668;49.648;8.570;2024-02-28T14:07:08;10.73;;;8.30;;
3311;SDS011;1668;49.648;8.570;2024-02-28T14:09:35;11.60;;;8.20;;
3311;SDS011;1668;49.648;8.570;2024-02-28T14:12:02;11.43;;;8.63;;
3311;SDS011;1668;49.648;8.570;2024-02-28T14:14:30;10.33;;;8.33;;
3311;SDS011;1668;49.648;8.570;2024-02-28T14:16:57;12.23;;;9.03;;
3311;SDS011;1668;49.648;8.570;2024-02-28T14:19:24;9.80;;;7.90;;
3311;SDS011;1668;49.648;8.570;2024-02-28T14:21:51;11.43;;;7.90;;
3311;SDS011;1668;49.648;8.570;2024-02-28T14:24:18;14.90;;;10.57;;
3311;SDS011;1668;49.648;8.570;2024-02-28T14:26:45;16.77;;;11.67;;
3311;SDS011;1668;49.648;8.570;2024-02-28T14:29:12;17.57;;;13.50;;
3311;SDS011;1668;49.648;8.570;2024-02-28T14:31:41;17.30;;;11.93;;
3311;SDS011;1668;49.648;8.570;2024-02-28T14:34:08;17.83;;;13.33;;
3311;SDS011;1668;49.648;8.570;2024-02-28T14:36:35;21.83;;;12.17;;
3311;SDS011;1668;49.648;8.570;2024-02-28T14:39:02;16.33;;;12.40;;
3311;SDS011;1668;49.648;8.570;2024-02-28T14:41:29;17.60;;;12.50;;
3311;SDS011;1668;49.648;8.570;2024-02-28T14:43:57;16.30;;;11.00;;
3311;SDS011;1668;49.648;8.570;2024-02-28T14:46:23;17.97;;;12.77;;
3311;SDS011;1668;49.648;8.570;2024-02-28T14:48:52;18.13;;;13.37;;
3311;SDS011;1668;49.648;8.570;2024-02-28T14:51:20;18.47;;;13.47;;
3311;SDS011;1668;49.648;8.570;2024-02-28T14:53:48;17.93;;;13.33;;
3311;SDS011;1668;49.648;8.570;2024-02-28T14:56:15;16.00;;;12.67;;
3311;SDS011;1668;49.648;8.570;2024-02-28T14:58:44;19.03;;;13.00;;
3311;SDS011;1668;49.648;8.570;2024-02-28T15:01:11;18.10;;;12.37;;
3311;SDS011;1668;49.648;8.570;2024-02-28T15:03:38;17.20;;;12.90;;
3311;SDS011;1668;49.648;8.570;2024-02-28T15:06:07;18.00;;;12.80;;
3311;SDS011;1668;49.648;8.570;2024-02-28T15:08:35;17.07;;;12.13;;